createdAt,value
2017-07-16T00:00:14.277Z,15.80
2017-07-16T00:02:41.707Z,15.80
2017-07-16T00:05:09.132Z,15.80
2017-07-16T00:07:37.351Z,15.90
2017-07-16T00:10:04.783Z,15.90
2017-07-16T00:12:32.200Z,15.90
2017-07-16T00:14:59.632Z,15.90
2017-07-16T00:17:27.056Z,15.90
2017-07-16T00:19:54.536Z,15.90
2017-07-16T00:22:21.940Z,15.90
2017-07-16T00:24:49.363Z,15.90
2017-07-16T00:27:16.788Z,15.90
2017-07-16T00:29:44.221Z,15.90
2017-07-16T00:32:11.632Z,15.90
2017-07-16T00:34:39.077Z,15.80
2017-07-16T00:37:06.506Z,15.80
2017-07-16T00:39:33.935Z,15.80
2017-07-16T00:42:01.392Z,15.90
2017-07-16T00:44:28.832Z,15.90
2017-07-16T00:46:56.260Z,15.90
2017-07-16T00:49:23.696Z,15.90
2017-07-16T00:51:51.117Z,15.80
2017-07-16T00:54:18.557Z,15.80
2017-07-16T00:56:45.976Z,15.80
2017-07-16T00:59:13.429Z,15.80
2017-07-16T01:01:40.847Z,15.80
2017-07-16T01:04:08.285Z,15.80
2017-07-16T01:06:35.719Z,15.80
2017-07-16T01:09:03.179Z,15.80
2017-07-16T01:11:30.608Z,15.80
2017-07-16T01:13:58.047Z,15.80
2017-07-16T01:16:25.467Z,15.90
2017-07-16T01:18:52.900Z,15.90
2017-07-16T01:21:20.415Z,15.90
2017-07-16T01:23:48.596Z,15.90
2017-07-16T01:26:22.783Z,15.90
2017-07-16T01:28:50.200Z,15.90
2017-07-16T01:31:17.636Z,15.90
2017-07-16T01:33:45.073Z,15.90
2017-07-16T01:36:13.256Z,15.90
2017-07-16T01:38:40.692Z,15.90
2017-07-16T01:41:08.879Z,15.90
2017-07-16T01:43:37.078Z,15.80
2017-07-16T01:46:04.501Z,15.80
2017-07-16T01:48:32.704Z,15.80
2017-07-16T01:51:00.131Z,15.80
2017-07-16T01:53:27.565Z,15.80
2017-07-16T01:55:54.989Z,15.80
2017-07-16T01:58:22.416Z,15.80
2017-07-16T02:00:49.848Z,15.80
2017-07-16T02:03:17.280Z,15.80
2017-07-16T02:05:44.719Z,15.80
2017-07-16T02:08:12.148Z,15.80
2017-07-16T02:10:39.579Z,15.80
2017-07-16T02:13:06.998Z,15.80
2017-07-16T02:15:34.424Z,15.80
2017-07-16T02:18:01.860Z,15.80
2017-07-16T02:20:30.063Z,15.80
2017-07-16T02:22:57.467Z,15.80
2017-07-16T02:25:24.900Z,15.80
2017-07-16T02:27:52.324Z,15.80
2017-07-16T02:30:19.753Z,15.80
2017-07-16T02:32:47.175Z,15.80
2017-07-16T02:35:14.613Z,15.80
2017-07-16T02:37:42.027Z,15.90
2017-07-16T02:40:10.226Z,15.80
2017-07-16T02:42:37.659Z,15.80
2017-07-16T02:45:05.858Z,15.90
2017-07-16T02:47:33.280Z,15.90
2017-07-16T02:50:01.480Z,16.00
2017-07-16T02:52:28.910Z,16.00
2017-07-16T02:54:56.339Z,16.00
2017-07-16T02:57:23.764Z,16.00
2017-07-16T02:59:51.188Z,16.00
2017-07-16T03:02:18.616Z,16.10
2017-07-16T03:04:46.092Z,16.10
2017-07-16T03:07:13.528Z,16.10
2017-07-16T03:09:40.960Z,16.10
2017-07-16T03:12:08.398Z,16.20
2017-07-16T03:14:35.827Z,16.20
2017-07-16T03:17:03.263Z,16.20
2017-07-16T03:19:30.699Z,16.20
2017-07-16T03:21:58.140Z,16.20
2017-07-16T03:24:25.569Z,16.20
2017-07-16T03:26:52.993Z,16.10
2017-07-16T03:29:20.424Z,16.10
2017-07-16T03:31:47.852Z,16.20
2017-07-16T03:34:15.273Z,16.20
2017-07-16T03:36:42.705Z,16.20
2017-07-16T03:39:10.131Z,16.20
2017-07-16T03:41:37.556Z,16.20
2017-07-16T03:44:04.978Z,16.30
2017-07-16T03:46:32.410Z,16.30
2017-07-16T03:48:59.841Z,16.30
2017-07-16T03:51:27.269Z,16.20
2017-07-16T03:53:54.931Z,16.30
2017-07-16T03:56:23.137Z,16.30
2017-07-16T03:58:50.563Z,16.30
2017-07-16T04:01:17.981Z,16.30
2017-07-16T04:03:46.407Z,16.30
2017-07-16T04:06:14.587Z,16.30
2017-07-16T04:08:42.026Z,16.30
2017-07-16T04:11:09.449Z,16.30
2017-07-16T04:13:36.880Z,16.30
2017-07-16T04:16:04.309Z,16.40
2017-07-16T04:18:32.500Z,16.40
2017-07-16T04:20:59.934Z,16.40
2017-07-16T04:23:28.124Z,16.50
2017-07-16T04:25:55.548Z,16.40
2017-07-16T04:28:22.980Z,16.50
2017-07-16T04:30:50.404Z,16.50
2017-07-16T04:33:17.837Z,16.60
2017-07-16T04:35:46.032Z,16.60
2017-07-16T04:38:13.471Z,16.50
2017-07-16T04:40:41.670Z,16.60
2017-07-16T04:43:09.112Z,16.60
2017-07-16T04:45:36.545Z,16.60
2017-07-16T04:48:03.976Z,16.60
2017-07-16T04:50:31.412Z,16.60
2017-07-16T04:52:58.856Z,16.60
2017-07-16T04:55:26.282Z,16.70
2017-07-16T04:57:53.714Z,16.70
2017-07-16T05:00:21.144Z,16.70
2017-07-16T05:02:48.572Z,16.70
2017-07-16T05:05:16.000Z,16.50
2017-07-16T05:07:44.192Z,16.60
2017-07-16T05:10:12.405Z,16.70
2017-07-16T05:12:39.833Z,16.70
2017-07-16T05:15:07.279Z,16.70
2017-07-16T05:17:35.468Z,16.80
2017-07-16T05:20:02.891Z,16.80
2017-07-16T05:22:30.310Z,16.90
2017-07-16T05:24:57.745Z,17.00
2017-07-16T05:27:25.166Z,17.00
2017-07-16T05:29:53.357Z,17.00
2017-07-16T05:32:20.789Z,17.00
2017-07-16T05:34:48.220Z,17.10
2017-07-16T05:37:15.642Z,17.10
2017-07-16T05:39:43.063Z,17.20
2017-07-16T05:42:11.256Z,17.30
2017-07-16T05:44:38.694Z,17.20
2017-07-16T05:47:06.116Z,17.30
2017-07-16T05:49:33.543Z,17.30
2017-07-16T05:52:00.968Z,17.30
2017-07-16T05:54:28.396Z,17.40
2017-07-16T05:56:55.827Z,17.40
2017-07-16T05:59:23.260Z,17.40
2017-07-16T06:01:51.460Z,17.50
2017-07-16T06:04:18.884Z,17.40
2017-07-16T06:06:46.317Z,17.50
2017-07-16T06:09:13.738Z,17.50
2017-07-16T06:11:41.163Z,17.60
2017-07-16T06:14:08.594Z,17.60
2017-07-16T06:16:36.792Z,17.80
2017-07-16T06:19:04.222Z,17.80
2017-07-16T06:21:31.638Z,18.00
2017-07-16T06:23:59.059Z,18.00
2017-07-16T06:26:26.497Z,18.10
2017-07-16T06:28:54.687Z,18.20
2017-07-16T06:31:23.157Z,18.20
2017-07-16T06:33:51.627Z,18.20
2017-07-16T06:36:19.832Z,18.20
2017-07-16T06:38:47.261Z,18.20
2017-07-16T06:41:15.460Z,18.30
2017-07-16T06:43:42.885Z,18.30
2017-07-16T06:46:10.315Z,18.30
2017-07-16T06:48:37.741Z,18.40
2017-07-16T06:51:05.171Z,18.50
2017-07-16T06:53:33.355Z,18.70
2017-07-16T06:56:00.812Z,18.60
2017-07-16T06:58:28.241Z,18.80
2017-07-16T07:00:55.661Z,18.80
2017-07-16T07:03:23.113Z,18.90
2017-07-16T07:05:50.535Z,18.90
2017-07-16T07:08:17.973Z,19.00
2017-07-16T07:10:46.162Z,19.10
2017-07-16T07:13:14.356Z,19.20
2017-07-16T07:15:41.783Z,19.20
2017-07-16T07:18:09.989Z,19.30
2017-07-16T07:20:37.412Z,19.30
2017-07-16T07:23:05.608Z,19.40
2017-07-16T07:25:33.038Z,19.40
2017-07-16T07:28:00.460Z,19.60
2017-07-16T07:30:27.887Z,19.60
2017-07-16T07:32:55.370Z,19.80
2017-07-16T07:35:22.783Z,19.90
2017-07-16T07:37:50.224Z,20.10
2017-07-16T07:40:18.429Z,20.30
2017-07-16T07:42:45.870Z,20.30
2017-07-16T07:45:14.084Z,20.60
2017-07-16T07:47:42.520Z,20.60
2017-07-16T07:50:10.716Z,20.90
2017-07-16T07:52:38.155Z,20.80
2017-07-16T07:55:06.349Z,21.00
2017-07-16T07:57:33.823Z,20.90
2017-07-16T08:00:01.252Z,21.00
2017-07-16T08:02:28.766Z,21.00
2017-07-16T08:04:56.183Z,21.10
2017-07-16T08:07:25.653Z,21.20
2017-07-16T08:09:53.857Z,21.20
2017-07-16T08:12:22.300Z,21.20
2017-07-16T08:14:49.738Z,21.20
2017-07-16T08:17:23.016Z,21.20
2017-07-16T08:19:50.454Z,21.10
2017-07-16T08:22:17.873Z,20.90
2017-07-16T08:24:46.068Z,21.10
2017-07-16T08:27:13.492Z,21.00
2017-07-16T08:29:40.920Z,21.00
2017-07-16T08:32:08.361Z,21.20
2017-07-16T08:34:35.794Z,21.30
2017-07-16T08:37:03.216Z,21.30
2017-07-16T08:39:30.644Z,21.30
2017-07-16T08:41:58.072Z,21.30
2017-07-16T08:44:25.504Z,21.30
2017-07-16T08:46:53.725Z,21.30
2017-07-16T08:49:21.160Z,21.30
2017-07-16T08:51:48.598Z,21.30
2017-07-16T08:54:16.798Z,21.40
2017-07-16T08:56:44.221Z,21.40
2017-07-16T08:59:12.415Z,21.60
2017-07-16T09:01:39.924Z,21.60
2017-07-16T09:04:07.349Z,21.80
2017-07-16T09:06:34.792Z,22.00
2017-07-16T09:09:02.213Z,22.20
2017-07-16T09:11:29.649Z,22.40
2017-07-16T09:13:57.081Z,22.60
2017-07-16T09:16:24.507Z,22.70
2017-07-16T09:18:51.932Z,22.90
2017-07-16T09:21:19.365Z,23.00
2017-07-16T09:23:46.806Z,23.10
2017-07-16T09:26:14.233Z,23.10
2017-07-16T09:28:41.656Z,23.20
2017-07-16T09:31:09.085Z,23.10
2017-07-16T09:33:36.504Z,23.10
2017-07-16T09:36:03.931Z,23.30
2017-07-16T09:38:31.352Z,23.50
2017-07-16T09:40:58.800Z,23.90
2017-07-16T09:43:26.230Z,24.10
2017-07-16T09:45:53.665Z,24.20
2017-07-16T09:48:21.089Z,24.20
2017-07-16T09:50:48.521Z,24.10
2017-07-16T09:53:15.951Z,24.30
2017-07-16T09:55:43.381Z,24.60
2017-07-16T09:58:10.808Z,24.80
2017-07-16T10:00:38.247Z,24.80
2017-07-16T10:03:05.685Z,24.80
2017-07-16T10:05:34.098Z,25.00
2017-07-16T10:08:01.525Z,24.80
2017-07-16T10:10:29.084Z,25.00
2017-07-16T10:12:56.511Z,25.20
2017-07-16T10:15:24.705Z,25.50
2017-07-16T10:17:52.136Z,25.40
2017-07-16T10:20:20.333Z,25.40
2017-07-16T10:22:47.767Z,25.40
2017-07-16T10:25:15.194Z,25.50
2017-07-16T10:27:42.633Z,25.70
2017-07-16T10:30:10.063Z,25.90
2017-07-16T10:32:37.492Z,26.00
2017-07-16T10:35:04.912Z,25.90
2017-07-16T10:37:32.358Z,26.10
2017-07-16T10:39:59.780Z,26.10
2017-07-16T10:42:27.986Z,26.70
2017-07-16T10:44:55.495Z,26.60
2017-07-16T10:47:22.929Z,26.90
2017-07-16T10:49:50.364Z,26.80
2017-07-16T10:52:17.800Z,26.90
2017-07-16T10:54:45.238Z,26.70
2017-07-16T10:57:12.671Z,26.40
2017-07-16T10:59:40.136Z,26.00
2017-07-16T11:02:07.571Z,26.00
2017-07-16T11:04:35.002Z,26.00
2017-07-16T11:07:02.509Z,26.00
2017-07-16T11:09:30.701Z,25.90
2017-07-16T11:11:58.136Z,25.80
2017-07-16T11:14:25.560Z,25.80
2017-07-16T11:16:52.989Z,25.70
2017-07-16T11:19:20.415Z,25.60
2017-07-16T11:21:47.844Z,25.60
2017-07-16T11:24:15.266Z,25.70
2017-07-16T11:26:42.699Z,25.60
2017-07-16T11:29:10.141Z,25.80
2017-07-16T11:31:37.561Z,26.10
2017-07-16T11:34:05.001Z,26.30
2017-07-16T11:36:32.417Z,26.50
2017-07-16T11:38:59.857Z,26.80
2017-07-16T11:41:27.285Z,26.30
2017-07-16T11:43:54.792Z,26.40
2017-07-16T11:46:22.215Z,26.50
2017-07-16T11:48:49.647Z,26.70
2017-07-16T11:51:17.082Z,26.90
2017-07-16T11:53:44.503Z,26.90
2017-07-16T11:56:11.932Z,27.00
2017-07-16T11:58:39.520Z,27.10
2017-07-16T12:01:07.788Z,27.20
2017-07-16T12:03:43.293Z,27.20
2017-07-16T12:06:11.721Z,27.00
2017-07-16T12:08:39.922Z,26.80
2017-07-16T12:11:07.353Z,26.80
2017-07-16T12:13:35.540Z,26.60
2017-07-16T12:16:02.965Z,26.50
2017-07-16T12:18:30.392Z,26.50
2017-07-16T12:20:57.841Z,26.30
2017-07-16T12:23:25.247Z,26.00
2017-07-16T12:25:52.676Z,26.10
2017-07-16T12:28:20.099Z,26.20
2017-07-16T12:30:47.527Z,26.10
2017-07-16T12:33:15.715Z,26.20
2017-07-16T12:35:43.180Z,26.20
2017-07-16T12:38:10.610Z,26.40
2017-07-16T12:40:38.820Z,26.40
2017-07-16T12:43:06.248Z,26.30
2017-07-16T12:45:34.445Z,26.40
2017-07-16T12:48:01.868Z,26.40
2017-07-16T12:50:30.071Z,26.40
2017-07-16T12:52:57.496Z,26.40
2017-07-16T12:55:24.933Z,26.40
2017-07-16T12:57:52.366Z,26.60
2017-07-16T13:00:20.627Z,26.60
2017-07-16T13:02:48.072Z,26.60
2017-07-16T13:05:16.322Z,26.40
2017-07-16T13:07:43.733Z,26.30
2017-07-16T13:10:11.153Z,26.30
2017-07-16T13:12:38.588Z,26.30
2017-07-16T13:15:06.027Z,26.40
2017-07-16T13:17:33.451Z,26.40
2017-07-16T13:20:00.876Z,26.50
2017-07-16T13:22:29.087Z,26.30
2017-07-16T13:24:56.523Z,26.30
2017-07-16T13:27:23.973Z,26.30
2017-07-16T13:29:51.397Z,26.20
2017-07-16T13:32:18.833Z,26.20
2017-07-16T13:34:46.270Z,26.30
2017-07-16T13:37:17.155Z,26.40
2017-07-16T13:39:44.579Z,26.50
2017-07-16T13:42:15.472Z,26.20
2017-07-16T13:44:42.892Z,26.20
2017-07-16T13:47:10.328Z,26.30
2017-07-16T13:49:39.815Z,26.20
2017-07-16T13:52:07.234Z,26.30
2017-07-16T13:54:34.682Z,26.30
2017-07-16T13:57:02.880Z,25.90
2017-07-16T13:59:30.309Z,25.90
2017-07-16T14:01:57.728Z,26.00
2017-07-16T14:04:25.165Z,26.10
2017-07-16T14:06:52.592Z,26.10
2017-07-16T14:09:20.784Z,26.20
2017-07-16T14:11:48.212Z,26.20
2017-07-16T14:14:15.629Z,26.00
2017-07-16T14:16:43.059Z,26.00
2017-07-16T14:19:10.493Z,26.10
2017-07-16T14:21:38.683Z,26.40
2017-07-16T14:24:06.125Z,26.30
2017-07-16T14:26:34.317Z,26.40
2017-07-16T14:29:01.749Z,26.40
2017-07-16T14:31:29.949Z,26.60
2017-07-16T14:33:58.357Z,26.60
2017-07-16T14:36:25.766Z,26.60
2017-07-16T14:38:53.975Z,26.70
2017-07-16T14:41:21.490Z,26.70
2017-07-16T14:43:50.272Z,26.50
2017-07-16T14:46:17.732Z,26.50
2017-07-16T14:48:45.161Z,26.50
2017-07-16T14:51:12.585Z,26.30
2017-07-16T14:53:40.033Z,26.30
2017-07-16T14:56:07.456Z,26.30
2017-07-16T14:58:35.669Z,26.20
2017-07-16T15:01:03.127Z,26.20
2017-07-16T15:03:30.605Z,26.30
2017-07-16T15:05:57.995Z,26.20
2017-07-16T15:08:25.470Z,26.30
2017-07-16T15:10:52.970Z,26.30
2017-07-16T15:13:20.381Z,26.30
2017-07-16T15:15:48.576Z,26.20
2017-07-16T15:18:16.004Z,26.20
2017-07-16T15:20:43.481Z,26.20
2017-07-16T15:23:10.859Z,26.20
2017-07-16T15:25:38.291Z,26.20
2017-07-16T15:28:06.484Z,26.10
2017-07-16T15:30:33.920Z,26.10
2017-07-16T15:33:01.340Z,26.20
2017-07-16T15:35:28.771Z,26.30
2017-07-16T15:37:56.209Z,26.20
2017-07-16T15:40:23.642Z,26.30
2017-07-16T15:42:51.064Z,26.30
2017-07-16T15:45:18.501Z,26.30
2017-07-16T15:47:45.929Z,26.30
2017-07-16T15:50:13.369Z,26.30
2017-07-16T15:52:40.797Z,26.30
2017-07-16T15:55:08.240Z,26.30
2017-07-16T15:57:35.668Z,26.20
2017-07-16T16:00:03.205Z,26.30
2017-07-16T16:02:30.618Z,26.30
2017-07-16T16:04:58.056Z,26.20
2017-07-16T16:07:25.492Z,26.10
2017-07-16T16:09:52.934Z,26.10
2017-07-16T16:12:21.123Z,26.10
2017-07-16T16:14:48.572Z,26.00
2017-07-16T16:17:16.005Z,26.00
2017-07-16T16:19:43.433Z,26.00
2017-07-16T16:22:10.883Z,25.90
2017-07-16T16:24:38.378Z,26.00
2017-07-16T16:27:05.813Z,26.00
2017-07-16T16:29:33.246Z,26.00
2017-07-16T16:32:00.676Z,26.10
2017-07-16T16:34:28.100Z,26.00
2017-07-16T16:36:56.297Z,25.90
2017-07-16T16:39:23.723Z,25.90
2017-07-16T16:41:51.183Z,26.00
2017-07-16T16:44:18.593Z,25.80
2017-07-16T16:46:46.016Z,25.90
2017-07-16T16:49:13.470Z,25.90
2017-07-16T16:51:40.901Z,25.90
2017-07-16T16:54:08.324Z,25.90
2017-07-16T16:56:35.757Z,25.90
2017-07-16T16:59:03.195Z,25.90
2017-07-16T17:01:31.032Z,25.80
2017-07-16T17:03:58.492Z,25.70
2017-07-16T17:06:25.912Z,25.70
2017-07-16T17:08:53.340Z,25.70
2017-07-16T17:11:20.772Z,25.60
2017-07-16T17:13:48.964Z,25.50
2017-07-16T17:16:16.402Z,25.50
2017-07-16T17:18:43.822Z,25.50
2017-07-16T17:21:11.249Z,25.50
2017-07-16T17:23:38.685Z,25.40
2017-07-16T17:26:06.109Z,25.40
2017-07-16T17:28:33.544Z,25.40
2017-07-16T17:31:00.977Z,25.30
2017-07-16T17:33:28.408Z,25.30
2017-07-16T17:35:56.603Z,25.20
2017-07-16T17:38:24.028Z,25.20
2017-07-16T17:40:51.453Z,25.20
2017-07-16T17:43:18.885Z,25.20
2017-07-16T17:45:46.312Z,25.10
2017-07-16T17:48:13.744Z,25.10
2017-07-16T17:50:41.189Z,25.10
2017-07-16T17:53:11.948Z,25.10
2017-07-16T17:55:40.136Z,25.00
2017-07-16T17:58:07.577Z,25.00
2017-07-16T18:03:25.511Z,24.90
2017-07-16T18:05:53.001Z,24.90
2017-07-16T18:08:20.450Z,24.80
2017-07-16T18:10:47.920Z,24.80
2017-07-16T18:13:16.118Z,24.80
2017-07-16T18:15:43.551Z,24.70
2017-07-16T18:18:10.993Z,24.70
2017-07-16T18:20:38.427Z,24.60
2017-07-16T18:23:05.860Z,24.70
2017-07-16T18:25:33.293Z,24.60
2017-07-16T18:28:00.824Z,24.60
2017-07-16T18:30:28.252Z,24.50
2017-07-16T18:32:55.710Z,24.50
2017-07-16T18:35:23.144Z,24.50
2017-07-16T18:37:50.584Z,24.40
2017-07-16T18:40:18.019Z,24.40
2017-07-16T18:42:46.241Z,24.20
2017-07-16T18:45:13.677Z,24.20
2017-07-16T18:47:41.104Z,24.20
2017-07-16T18:50:08.550Z,24.20
2017-07-16T18:52:36.026Z,24.10
2017-07-16T18:55:03.460Z,24.10
2017-07-16T18:57:32.883Z,24.10
2017-07-16T19:00:00.332Z,24.00
2017-07-16T19:02:28.526Z,23.90
2017-07-16T19:04:55.966Z,23.90
2017-07-16T19:07:23.429Z,23.90
2017-07-16T19:09:51.639Z,23.80
2017-07-16T19:12:19.078Z,23.80
2017-07-16T19:14:46.519Z,23.70
2017-07-16T19:17:14.727Z,23.70
2017-07-16T19:19:43.158Z,23.70
2017-07-16T19:22:10.596Z,23.60
2017-07-16T19:24:38.024Z,23.60
2017-07-16T19:27:05.482Z,23.60
2017-07-16T19:29:32.905Z,23.50
2017-07-16T19:32:00.340Z,23.50
2017-07-16T19:34:27.793Z,23.40
2017-07-16T19:36:55.231Z,23.40
2017-07-16T19:39:22.659Z,23.30
2017-07-16T19:41:50.099Z,23.20
2017-07-16T19:44:17.520Z,23.20
2017-07-16T19:46:45.741Z,23.10
2017-07-16T19:49:17.150Z,23.10
2017-07-16T19:51:45.362Z,23.00
2017-07-16T19:54:13.806Z,23.00
2017-07-16T19:56:42.017Z,23.00
2017-07-16T19:59:09.450Z,22.90
2017-07-16T20:01:37.644Z,22.90
2017-07-16T20:04:05.117Z,22.90
2017-07-16T20:06:32.529Z,22.80
2017-07-16T20:08:59.952Z,22.80
2017-07-16T20:11:27.389Z,22.70
2017-07-16T20:13:54.828Z,22.60
2017-07-16T20:16:22.264Z,22.60
2017-07-16T20:18:50.480Z,22.50
2017-07-16T20:21:17.906Z,22.50
2017-07-16T20:23:45.351Z,22.50
2017-07-16T20:26:12.784Z,22.40
2017-07-16T20:28:40.209Z,22.40
2017-07-16T20:31:07.702Z,22.30
2017-07-16T20:33:35.131Z,22.20
2017-07-16T20:36:02.569Z,22.00
2017-07-16T20:38:30.050Z,22.00
2017-07-16T20:40:57.488Z,21.90
2017-07-16T20:43:24.988Z,21.90
2017-07-16T20:45:52.406Z,21.80
2017-07-16T20:48:19.849Z,21.80
2017-07-16T20:50:47.275Z,21.80
2017-07-16T20:53:15.488Z,21.60
2017-07-16T20:55:43.746Z,21.60
2017-07-16T20:58:11.223Z,21.60
2017-07-16T21:00:38.654Z,21.50
2017-07-16T21:03:06.090Z,21.50
2017-07-16T21:05:33.518Z,21.30
2017-07-16T21:08:00.949Z,21.20
2017-07-16T21:10:28.391Z,21.10
2017-07-16T21:12:55.925Z,21.10
2017-07-16T21:15:24.134Z,20.90
2017-07-16T21:17:51.572Z,20.90
2017-07-16T21:20:19.006Z,20.90
2017-07-16T21:22:47.208Z,20.90
2017-07-16T21:25:15.221Z,20.90
2017-07-16T21:27:42.829Z,20.90
2017-07-16T21:30:10.259Z,20.80
2017-07-16T21:32:40.469Z,20.80
2017-07-16T21:35:07.902Z,20.80
2017-07-16T21:37:35.344Z,20.80
2017-07-16T21:40:03.069Z,20.80
2017-07-16T21:42:31.747Z,20.70
2017-07-16T21:44:59.177Z,20.70
2017-07-16T21:47:26.608Z,20.70
2017-07-16T21:49:54.050Z,20.70
2017-07-16T21:52:21.481Z,20.60
2017-07-16T21:54:49.686Z,20.60
2017-07-16T21:57:17.115Z,20.60
2017-07-16T21:59:44.566Z,20.60
2017-07-16T22:02:12.757Z,20.50
2017-07-16T22:04:40.195Z,20.40
2017-07-16T22:07:08.396Z,20.40
2017-07-16T22:09:35.827Z,20.40
2017-07-16T22:12:04.103Z,20.40
2017-07-16T22:14:32.310Z,20.20
2017-07-16T22:16:59.739Z,20.20
2017-07-16T22:19:27.938Z,20.00
2017-07-16T22:21:55.367Z,19.90
2017-07-16T22:24:23.568Z,19.90
2017-07-16T22:26:50.998Z,19.90
2017-07-16T22:29:19.224Z,20.00
2017-07-16T22:31:46.734Z,20.00
2017-07-16T22:37:07.461Z,20.10
2017-07-16T22:39:34.902Z,20.10
2017-07-16T22:42:02.325Z,20.10
2017-07-16T22:44:29.761Z,20.10
2017-07-16T22:46:57.189Z,20.10
2017-07-16T22:49:25.387Z,20.20
2017-07-16T22:51:52.813Z,20.10
2017-07-16T22:54:20.257Z,20.10
2017-07-16T22:56:47.685Z,20.10
2017-07-16T22:59:15.124Z,20.10
2017-07-16T23:01:42.557Z,20.10
2017-07-16T23:04:09.985Z,20.10
2017-07-16T23:06:38.190Z,20.20
2017-07-16T23:09:05.613Z,20.20
2017-07-16T23:11:33.049Z,20.20
2017-07-16T23:14:00.480Z,20.20
2017-07-16T23:16:27.918Z,20.20
2017-07-16T23:18:55.341Z,20.20
2017-07-16T23:21:22.774Z,20.20
2017-07-16T23:23:50.201Z,20.20
2017-07-16T23:26:17.638Z,20.20
2017-07-16T23:28:45.068Z,20.20
2017-07-16T23:31:13.277Z,20.20
2017-07-16T23:33:40.720Z,20.20
2017-07-16T23:36:08.154Z,20.20
2017-07-16T23:38:35.582Z,20.10
2017-07-16T23:41:03.021Z,20.20
2017-07-16T23:43:30.453Z,20.10
2017-07-16T23:45:57.890Z,20.10
2017-07-16T23:48:25.321Z,20.20
2017-07-16T23:50:52.752Z,20.20
2017-07-16T23:53:20.199Z,20.20
2017-07-16T23:55:47.640Z,20.10
2017-07-16T23:58:15.075Z,20.10
